Time,TemperatureF,DewpointF,PressureIn,WindDirection,WindDirectionDegrees,WindSpeedMPH,WindSpeedGustMPH,Humidity,HourlyPrecipIn,Conditions,Clouds,dailyrainin,SoftwareType,DateUTC
2013-01-30 06:50:00,5.6,-4.6,30.20,SW,225,0.0,4.0,62,0.00,,---,0.00,VWS V14.01,2013-01-30 13:50:00,
2013-01-30 07:04:00,6.3,-3.9,30.20,SW,222,0.0,0.0,62,0.00,,---,0.00,VWS V14.01,2013-01-30 14:04:00,
2013-01-30 07:09:00,6.5,-3.7,30.21,SW,222,0.0,2.0,62,0.00,,---,0.00,VWS V14.01,2013-01-30 14:09:00,
2013-01-30 07:14:00,6.7,-3.5,30.20,SW,222,4.0,4.0,62,0.00,,---,0.00,VWS V14.01,2013-01-30 14:14:00,
2013-01-30 07:19:00,6.8,-3.5,30.20,SW,222,0.0,2.0,62,0.00,,---,0.00,VWS V14.01,2013-01-30 14:19:00,
2013-01-30 07:24:00,7.1,-3.5,30.21,SW,222,0.0,1.0,61,0.00,,---,0.00,VWS V14.01,2013-01-30 14:24:00,
2013-01-30 07:26:00,7.2,-3.4,30.21,SW,222,0.0,1.0,61,0.00,,---,0.00,VWS V14.01,2013-01-30 14:26:00,
2013-01-30 07:31:00,7.4,-3.2,30.22,SW,222,0.0,0.0,61,0.00,,---,0.00,VWS V14.01,2013-01-30 14:31:00,
2013-01-30 07:36:00,7.8,-3.2,30.22,SW,222,0.0,1.0,60,0.00,,---,0.00,VWS V14.01,2013-01-30 14:36:00,
2013-01-30 07:41:00,8.3,-3.1,30.22,SW,222,0.0,2.0,59,0.00,,---,0.00,VWS V14.01,2013-01-30 14:41:00,
2013-01-30 07:46:00,9.3,-2.1,30.21,SW,222,0.0,0.0,59,0.00,,---,0.00,VWS V14.01,2013-01-30 14:46:00,
2013-01-30 07:51:00,10.3,-1.5,30.21,SW,222,0.0,0.0,58,0.00,,---,0.00,VWS V14.01,2013-01-30 14:51:00,
2013-01-30 07:56:00,11.4,-0.9,30.19,SW,222,0.0,0.0,57,0.00,,---,0.00,VWS V14.01,2013-01-30 14:56:00,
2013-01-30 08:01:00,11.9,-1.1,30.19,SW,222,0.0,2.0,55,0.00,,---,0.00,VWS V14.01,2013-01-30 15:01:00,
2013-01-30 08:06:00,11.9,-0.8,30.19,SW,222,0.0,2.0,56,0.00,,---,0.00,VWS V14.01,2013-01-30 15:06:00,
2013-01-30 08:11:00,11.9,-0.8,30.16,SW,222,2.0,3.0,56,0.00,,---,0.00,VWS V14.01,2013-01-30 15:11:00,
2013-01-30 08:16:00,12.1,-0.2,30.16,SW,222,0.0,5.0,57,0.00,,---,0.00,VWS V14.01,2013-01-30 15:16:00,
2013-01-30 08:21:00,12.8,0.4,30.16,SW,222,0.0,2.0,57,0.00,,---,0.00,VWS V14.01,2013-01-30 15:21:00,
2013-01-30 08:26:00,13.9,0.7,30.15,SW,222,0.0,2.0,55,0.00,,---,0.00,VWS V14.01,2013-01-30 15:26:00,
2013-01-30 08:31:00,14.9,0.1,30.15,SW,222,0.0,2.0,51,0.00,,---,0.00,VWS V14.01,2013-01-30 15:31:00,
2013-01-30 08:36:00,16.0,0.2,30.12,SW,222,0.0,0.0,49,0.00,,---,0.00,VWS V14.01,2013-01-30 15:36:00,
2013-01-30 08:41:00,16.8,-0.9,30.13,SW,222,0.0,0.0,45,0.00,,---,0.00,VWS V14.01,2013-01-30 15:41:00,
2013-01-30 08:46:00,17.0,-1.1,30.13,SW,222,0.0,0.0,44,0.00,,---,0.00,VWS V14.01,2013-01-30 15:46:00,
2013-01-30 08:51:00,16.9,-1.7,30.13,SW,222,0.0,0.0,43,0.00,,---,0.00,VWS V14.01,2013-01-30 15:51:00,
2013-01-30 08:56:00,16.9,-1.7,30.14,SW,222,0.0,0.0,43,0.00,,---,0.00,VWS V14.01,2013-01-30 15:56:00,
2013-01-30 09:01:00,17.1,-1.5,30.14,SW,222,0.0,0.0,43,0.00,,---,0.00,VWS V14.01,2013-01-30 16:01:00,
2013-01-30 09:06:00,17.4,-1.3,30.14,SW,222,0.0,0.0,43,0.00,,---,0.00,VWS V14.01,2013-01-30 16:06:00,
2013-01-30 09:11:00,17.2,-1.9,30.15,SW,222,2.0,2.0,42,0.00,,---,0.00,VWS V14.01,2013-01-30 16:11:00,
2013-01-30 09:16:00,17.1,-1.5,30.14,SW,222,0.0,0.0,43,0.00,,---,0.00,VWS V14.01,2013-01-30 16:16:00,
2013-01-30 09:21:00,17.5,-0.7,30.15,SW,222,0.0,3.0,44,0.00,,---,0.00,VWS V14.01,2013-01-30 16:21:00,
2013-01-30 09:26:00,18.1,-0.1,30.13,SW,222,0.0,2.0,44,0.00,,---,0.00,VWS V14.01,2013-01-30 16:26:00,
2013-01-30 09:31:00,18.4,0.6,30.13,SW,222,1.0,2.0,45,0.00,,---,0.00,VWS V14.01,2013-01-30 16:31:00,
2013-01-30 09:36:00,19.5,1.6,30.13,SW,221,1.0,4.0,45,0.00,,---,0.00,VWS V14.01,2013-01-30 16:36:00,
2013-01-30 09:41:00,20.3,1.9,30.12,NE,53,5.0,6.0,44,0.00,,---,0.00,VWS V14.01,2013-01-30 16:41:00,
2013-01-30 09:46:00,20.9,1.9,30.12,NE,52,1.0,2.0,43,0.00,,---,0.00,VWS V14.01,2013-01-30 16:46:00,
2013-01-30 09:51:00,21.3,2.3,30.13,NE,42,9.0,9.0,43,0.00,,---,0.00,VWS V14.01,2013-01-30 16:51:00,
2013-01-30 09:55:00,21.6,2.6,30.11,NNW,338,1.0,9.0,43,0.00,,---,0.00,VWS V14.01,2013-01-30 16:55:00,
2013-01-30 10:08:00,21.6,2.6,30.11,NNW,338,1.0,9.0,43,0.00,,---,0.00,VWS V14.01,2013-01-30 17:08:00,
2013-01-30 10:13:00,22.6,3.0,30.11,NE,48,5.0,7.0,42,0.00,,---,0.00,VWS V14.01,2013-01-30 17:13:00,
2013-01-30 10:18:00,23.1,2.4,30.10,ENE,61,1.0,7.0,40,0.00,,---,0.00,VWS V14.01,2013-01-30 17:18:00,
2013-01-30 10:23:00,23.1,2.9,30.09,NNW,339,0.0,3.0,41,0.00,,---,0.00,VWS V14.01,2013-01-30 17:23:00,
2013-01-30 10:28:00,23.1,1.8,30.09,NNW,339,0.0,2.0,39,0.00,,---,0.00,VWS V14.01,2013-01-30 17:28:00,
2013-01-30 10:33:00,23.5,2.7,30.09,NNW,339,5.0,5.0,40,0.00,,---,0.00,VWS V14.01,2013-01-30 17:33:00,
2013-01-30 10:38:00,23.8,2.5,30.09,NNW,339,0.0,4.0,39,0.00,,---,0.00,VWS V14.01,2013-01-30 17:38:00,
2013-01-30 10:43:00,24.2,2.8,30.08,NNW,339,0.0,5.0,39,0.00,,---,0.00,VWS V14.01,2013-01-30 17:43:00,
2013-01-30 10:48:00,25.3,3.8,30.05,East,83,4.0,7.0,39,0.00,,---,0.00,VWS V14.01,2013-01-30 17:48:00,
2013-01-30 10:53:00,26.8,4.0,30.05,NE,56,6.0,9.0,37,0.00,,---,0.00,VWS V14.01,2013-01-30 17:53:00,
2013-01-30 10:58:00,27.4,4.0,30.03,NNW,345,5.0,6.0,36,0.00,,---,0.00,VWS V14.01,2013-01-30 17:58:00,
2013-01-30 11:03:00,27.9,4.4,30.02,NE,56,4.0,10.0,36,0.00,,---,0.00,VWS V14.01,2013-01-30 18:03:00,
2013-01-30 11:08:00,28.0,5.1,30.05,NNW,332,4.0,10.0,37,0.00,,---,0.00,VWS V14.01,2013-01-30 18:08:00,
2013-01-30 11:14:00,27.9,5.0,30.05,NNW,341,2.0,9.0,37,0.00,,---,0.00,VWS V14.01,2013-01-30 18:14:00,
2013-01-30 11:19:00,27.9,4.4,30.04,NNW,341,0.0,3.0,36,0.00,,---,0.00,VWS V14.01,2013-01-30 18:19:00,
2013-01-30 11:24:00,28.5,4.3,30.03,East,80,2.0,8.0,35,0.00,,---,0.00,VWS V14.01,2013-01-30 18:24:00,
2013-01-30 11:29:00,29.0,4.2,30.03,North,5,0.0,4.0,34,0.00,,---,0.00,VWS V14.01,2013-01-30 18:29:00,
2013-01-30 11:34:00,29.2,6.2,30.04,WSW,241,5.0,11.0,37,0.00,,---,0.00,VWS V14.01,2013-01-30 18:34:00,
2013-01-30 11:39:00,28.8,5.8,30.03,West,265,6.0,10.0,37,0.00,,---,0.00,VWS V14.01,2013-01-30 18:39:00,
2013-01-30 11:44:00,28.7,5.7,30.03,West,261,9.0,10.0,37,0.00,,---,0.00,VWS V14.01,2013-01-30 18:44:00,
2013-01-30 11:49:00,28.4,4.9,30.03,West,261,4.0,8.0,36,0.00,,---,0.00,VWS V14.01,2013-01-30 18:49:00,
2013-01-30 11:54:00,28.6,5.6,30.03,WSW,254,2.0,9.0,37,0.00,,---,0.00,VWS V14.01,2013-01-30 18:54:00,
2013-01-30 11:59:00,29.6,5.9,30.01,WSW,254,0.0,0.0,36,0.00,,---,0.00,VWS V14.01,2013-01-30 18:59:00,
2013-01-30 12:04:00,30.6,6.2,30.01,WSW,254,0.0,6.0,35,0.00,,---,0.00,VWS V14.01,2013-01-30 19:04:00,
2013-01-30 12:09:00,30.7,6.3,30.03,WSW,253,0.0,4.0,35,0.00,,---,0.00,VWS V14.01,2013-01-30 19:09:00,
2013-01-30 12:14:00,31.0,6.6,30.02,WSW,254,0.0,1.0,35,0.00,,---,0.00,VWS V14.01,2013-01-30 19:14:00,
2013-01-30 12:19:00,31.3,6.8,30.02,WSW,254,1.0,4.0,35,0.00,,---,0.00,VWS V14.01,2013-01-30 19:19:00,
2013-01-30 12:24:00,31.4,6.9,30.01,WSW,254,0.0,4.0,35,0.00,,---,0.00,VWS V14.01,2013-01-30 19:24:00,
2013-01-30 12:29:00,31.7,7.2,29.99,WSW,254,0.0,2.0,35,0.00,,---,0.00,VWS V14.01,2013-01-30 19:29:00,
2013-01-30 12:34:00,32.6,7.3,29.99,WSW,256,0.0,5.0,34,0.00,,---,0.00,VWS V14.01,2013-01-30 19:34:00,
2013-01-30 12:39:00,33.2,9.1,29.99,NW,306,8.0,13.0,36,0.00,,---,0.00,VWS V14.01,2013-01-30 19:39:00,
2013-01-30 12:44:00,34.3,8.9,29.97,NW,323,7.0,21.0,34,0.00,,---,0.00,VWS V14.01,2013-01-30 19:44:00,
2013-01-30 12:49:00,34.5,9.7,29.97,WNW,300,10.0,24.0,35,0.00,,---,0.00,VWS V14.01,2013-01-30 19:49:00,
2013-01-30 12:54:00,34.4,9.6,29.97,NNW,333,25.0,28.0,35,0.01,,---,0.01,VWS V14.01,2013-01-30 19:54:00,
2013-01-30 12:59:00,33.9,8.5,29.98,NNW,331,11.0,30.0,34,0.01,,---,0.01,VWS V14.01,2013-01-30 19:59:00,
2013-01-30 13:04:00,33.8,9.1,29.98,NNW,347,20.0,30.0,35,0.01,,---,0.01,VWS V14.01,2013-01-30 20:04:00,
2013-01-30 13:09:00,33.7,8.3,30.00,NE,55,6.0,23.0,34,0.01,,---,0.01,VWS V14.01,2013-01-30 20:09:00,
2013-01-30 13:14:00,34.3,9.5,30.00,NNW,331,24.0,24.0,35,0.01,,---,0.01,VWS V14.01,2013-01-30 20:14:00,
2013-01-30 13:19:00,34.1,9.3,30.00,NNW,331,5.0,26.0,35,0.01,,---,0.01,VWS V14.01,2013-01-30 20:19:00,
2013-01-30 13:24:00,33.9,8.5,30.01,NNW,328,14.0,26.0,34,0.01,,---,0.01,VWS V14.01,2013-01-30 20:24:00,
2013-01-30 13:29:00,34.2,9.4,30.01,NNW,345,18.0,28.0,35,0.01,,---,0.01,VWS V14.01,2013-01-30 20:29:00,
2013-01-30 13:34:00,33.9,7.8,30.01,NNW,331,23.0,28.0,33,0.01,,---,0.01,VWS V14.01,2013-01-30 20:34:00,
2013-01-30 13:39:00,33.8,9.1,30.01,NNW,337,23.0,28.0,35,0.01,,---,0.01,VWS V14.01,2013-01-30 20:39:00,
2013-01-30 13:44:00,33.7,8.3,30.01,NNW,329,20.0,28.0,34,0.01,,---,0.01,VWS V14.01,2013-01-30 20:44:00,
2013-01-30 13:49:00,34.2,8.8,30.01,NW,318,12.0,25.0,34,0.01,,---,0.01,VWS V14.01,2013-01-30 20:49:00,
2013-01-30 13:54:00,34.2,8.1,30.01,WNW,286,9.0,25.0,33,0.01,,---,0.01,VWS V14.01,2013-01-30 20:54:00,
2013-01-30 13:59:00,34.2,7.4,30.02,NNW,329,15.0,21.0,32,0.00,,---,0.01,VWS V14.01,2013-01-30 20:59:00,
2013-01-30 14:05:00,34.4,8.3,30.02,WNW,295,14.0,24.0,33,0.00,,---,0.01,VWS V14.01,2013-01-30 21:05:00,
2013-01-30 14:10:00,34.4,8.3,30.03,NNW,348,15.0,26.0,33,0.00,,---,0.01,VWS V14.01,2013-01-30 21:10:00,
2013-01-30 14:15:00,34.8,9.3,30.01,NW,323,19.0,24.0,34,0.00,,---,0.01,VWS V14.01,2013-01-30 21:15:00,
2013-01-30 14:20:00,34.4,7.6,30.03,NW,322,22.0,29.0,32,0.00,,---,0.01,VWS V14.01,2013-01-30 21:20:00,
2013-01-30 14:25:00,34.4,7.6,30.03,WNW,296,12.0,34.0,32,0.00,,---,0.01,VWS V14.01,2013-01-30 21:25:00,
2013-01-30 14:30:00,34.4,7.6,30.04,North,349,14.0,26.0,32,0.00,,---,0.01,VWS V14.01,2013-01-30 21:30:00,
2013-01-30 14:35:00,34.4,6.9,30.02,NNW,348,23.0,29.0,31,0.00,,---,0.01,VWS V14.01,2013-01-30 21:35:00,
2013-01-30 14:40:00,34.4,7.6,30.04,NNW,327,16.0,24.0,32,0.00,,---,0.01,VWS V14.01,2013-01-30 21:40:00,
2013-01-30 14:45:00,34.4,8.3,30.04,North,355,26.0,29.0,33,0.00,,---,0.01,VWS V14.01,2013-01-30 21:45:00,
2013-01-30 14:50:00,34.6,8.5,30.02,NNW,329,13.0,25.0,33,0.00,,---,0.01,VWS V14.01,2013-01-30 21:50:00,
2013-01-30 14:55:00,34.4,6.9,30.02,North,360,12.0,26.0,31,0.00,,---,0.01,VWS V14.01,2013-01-30 21:55:00,
2013-01-30 15:00:00,34.7,7.9,30.01,NNW,342,27.0,27.0,32,0.00,,---,0.01,VWS V14.01,2013-01-30 22:00:00,
2013-01-30 15:05:00,34.8,8.6,30.02,NW,304,12.0,20.0,33,0.00,,---,0.01,VWS V14.01,2013-01-30 22:05:00,
2013-01-30 15:10:00,34.7,7.9,30.05,NW,313,15.0,25.0,32,0.00,,---,0.01,VWS V14.01,2013-01-30 22:10:00,
2013-01-30 15:15:00,34.7,7.2,30.05,NNW,346,11.0,29.0,31,0.00,,---,0.01,VWS V14.01,2013-01-30 22:15:00,
2013-01-30 15:20:00,34.8,8.6,30.05,NNW,333,13.0,20.0,33,0.00,,---,0.01,VWS V14.01,2013-01-30 22:20:00,
2013-01-30 15:25:00,34.7,7.9,30.04,NNW,336,12.0,26.0,32,0.00,,---,0.01,VWS V14.01,2013-01-30 22:25:00,
2013-01-30 15:30:00,34.9,10.0,30.05,WNW,302,13.0,22.0,35,0.00,,---,0.01,VWS V14.01,2013-01-30 22:30:00,
2013-01-30 15:35:00,34.8,8.0,30.04,WNW,298,10.0,26.0,32,0.00,,---,0.01,VWS V14.01,2013-01-30 22:35:00,
2013-01-30 15:40:00,34.6,8.5,30.04,NW,304,18.0,25.0,33,0.00,,---,0.01,VWS V14.01,2013-01-30 22:40:00,
2013-01-30 15:45:00,34.4,8.3,30.05,NW,311,21.0,26.0,33,0.00,,---,0.01,VWS V14.01,2013-01-30 22:45:00,
2013-01-30 15:50:00,34.4,8.9,30.05,NW,313,10.0,28.0,34,0.00,,---,0.01,VWS V14.01,2013-01-30 22:50:00,
2013-01-30 15:55:00,34.3,8.9,30.05,NW,306,29.0,29.0,34,0.00,,---,0.01,VWS V14.01,2013-01-30 22:55:00,
2013-01-30 16:00:00,33.9,7.2,30.05,NW,306,19.0,27.0,32,0.00,,---,0.01,VWS V14.01,2013-01-30 23:00:00,
2013-01-30 16:05:00,33.7,7.7,30.05,NNW,331,20.0,26.0,33,0.00,,---,0.01,VWS V14.01,2013-01-30 23:05:00,
2013-01-30 16:10:00,33.5,6.8,30.03,WNW,296,16.0,27.0,32,0.00,,---,0.01,VWS V14.01,2013-01-30 23:10:00,
2013-01-30 16:15:00,33.7,7.0,30.04,NW,309,14.0,24.0,32,0.00,,---,0.01,VWS V14.01,2013-01-30 23:15:00,
2013-01-30 16:20:00,33.9,7.8,30.03,NW,309,12.0,16.0,33,0.00,,---,0.01,VWS V14.01,2013-01-30 23:20:00,
2013-01-30 16:25:00,34.1,7.3,30.04,NW,317,13.0,22.0,32,0.00,,---,0.01,VWS V14.01,2013-01-30 23:25:00,
2013-01-30 16:30:00,34.1,8.0,30.04,NNW,336,6.0,21.0,33,0.00,,---,0.01,VWS V14.01,2013-01-30 23:30:00,
2013-01-30 16:35:00,33.9,7.8,30.05,NNW,330,12.0,24.0,33,0.00,,---,0.01,VWS V14.01,2013-01-30 23:35:00,
2013-01-30 16:40:00,33.8,8.4,30.04,WNW,302,12.0,18.0,34,0.00,,---,0.01,VWS V14.01,2013-01-30 23:40:00,
2013-01-30 16:45:00,33.3,8.6,30.05,NW,321,10.0,16.0,35,0.00,,---,0.01,VWS V14.01,2013-01-30 23:45:00,
2013-01-30 16:50:00,32.8,8.2,30.06,NNW,328,15.0,20.0,35,0.00,,---,0.01,VWS V14.01,2013-01-30 23:50:00,
2013-01-30 16:55:00,32.5,7.9,30.07,North,360,20.0,24.0,35,0.00,,---,0.01,VWS V14.01,2013-01-30 23:55:00,
2013-01-30 17:00:00,32.0,8.7,30.10,NNW,340,15.0,23.0,37,0.00,,---,0.01,VWS V14.01,2013-01-31 00:00:00,
2013-01-30 17:05:00,31.5,8.2,30.10,NNW,338,1.0,16.0,37,0.00,,---,0.01,VWS V14.01,2013-01-31 00:05:00,
2013-01-30 17:10:00,31.2,8.6,30.10,NNW,334,12.0,14.0,38,0.00,,---,0.01,VWS V14.01,2013-01-31 00:10:00,
2013-01-30 17:15:00,31.0,8.4,30.10,NNW,331,4.0,11.0,38,0.00,,---,0.01,VWS V14.01,2013-01-31 00:15:00,
2013-01-30 17:21:00,30.7,8.1,30.10,NNW,333,0.0,5.0,38,0.00,,---,0.01,VWS V14.01,2013-01-31 00:21:00,
2013-01-30 17:26:00,30.3,8.3,30.12,NNW,333,0.0,2.0,39,0.00,,---,0.01,VWS V14.01,2013-01-31 00:26:00,
2013-01-30 17:31:00,30.0,8.6,30.13,NNW,333,1.0,5.0,40,0.00,,---,0.01,VWS V14.01,2013-01-31 00:31:00,
2013-01-30 17:36:00,29.7,8.4,30.12,North,360,1.0,6.0,40,0.00,,---,0.01,VWS V14.01,2013-01-31 00:36:00,
2013-01-30 17:41:00,29.4,8.6,30.12,ENE,57,4.0,5.0,41,0.00,,---,0.01,VWS V14.01,2013-01-31 00:41:00,
2013-01-30 17:46:00,29.5,8.2,30.12,NE,55,3.0,9.0,40,0.00,,---,0.01,VWS V14.01,2013-01-31 00:46:00,
2013-01-30 17:51:00,29.4,8.1,30.13,ENE,57,8.0,11.0,40,0.00,,---,0.01,VWS V14.01,2013-01-31 00:51:00,
2013-01-30 17:56:00,29.1,8.4,30.13,NE,56,5.0,15.0,41,0.00,,---,0.01,VWS V14.01,2013-01-31 00:56:00,
2013-01-30 18:01:00,29.0,8.3,30.13,NE,48,2.0,13.0,41,0.00,,---,0.01,VWS V14.01,2013-01-31 01:01:00,
2013-01-30 18:06:00,29.0,8.3,30.16,ENE,60,7.0,7.0,41,0.00,,---,0.01,VWS V14.01,2013-01-31 01:06:00,
2013-01-30 18:11:00,28.7,8.0,30.16,NE,56,5.0,6.0,41,0.00,,---,0.01,VWS V14.01,2013-01-31 01:11:00,
2013-01-30 18:16:00,28.5,7.8,30.16,ENE,60,3.0,3.0,41,0.00,,---,0.01,VWS V14.01,2013-01-31 01:16:00,
2013-01-30 18:21:00,28.3,8.7,30.17,NE,56,1.0,4.0,43,0.00,,---,0.01,VWS V14.01,2013-01-31 01:21:00,
2013-01-30 18:26:00,28.0,7.9,30.16,NE,51,5.0,5.0,42,0.00,,---,0.01,VWS V14.01,2013-01-31 01:26:00,
2013-01-30 18:31:00,27.9,7.8,30.16,NE,51,1.0,1.0,42,0.00,,---,0.01,VWS V14.01,2013-01-31 01:31:00,
2013-01-30 18:36:00,27.9,7.8,30.17,NE,51,1.0,2.0,42,0.00,,---,0.01,VWS V14.01,2013-01-31 01:36:00,
2013-01-30 18:41:00,27.9,7.3,30.16,NE,51,0.0,0.0,41,0.00,,---,0.01,VWS V14.01,2013-01-31 01:41:00,
2013-01-30 18:46:00,27.9,7.3,30.16,NE,51,0.0,0.0,41,0.00,,---,0.01,VWS V14.01,2013-01-31 01:46:00,
2013-01-30 18:51:00,27.7,8.1,30.17,ESE,103,4.0,4.0,43,0.00,,---,0.01,VWS V14.01,2013-01-31 01:51:00,
2013-01-30 18:56:00,26.6,9.1,30.19,SSW,200,0.0,2.0,47,0.00,,---,0.01,VWS V14.01,2013-01-31 01:56:00,
2013-01-30 19:01:00,25.8,8.8,30.19,SSW,200,0.0,1.0,48,0.00,,---,0.01,VWS V14.01,2013-01-31 02:01:00,
2013-01-30 19:06:00,25.7,7.8,30.19,East,96,0.0,1.0,46,0.00,,---,0.01,VWS V14.01,2013-01-31 02:06:00,
2013-01-30 19:11:00,26.3,7.4,30.14,East,96,0.0,0.0,44,0.00,,---,0.01,VWS V14.01,2013-01-31 02:11:00,
2013-01-30 19:16:00,26.3,8.4,30.14,East,96,0.0,2.0,46,0.00,,---,0.01,VWS V14.01,2013-01-31 02:16:00,
2013-01-30 19:21:00,26.0,8.1,30.15,East,95,0.0,0.0,46,0.00,,---,0.01,VWS V14.01,2013-01-31 02:21:00,
2013-01-30 19:26:00,25.4,8.9,30.15,East,95,0.0,0.0,49,0.00,,---,0.01,VWS V14.01,2013-01-31 02:26:00,
2013-01-30 19:31:00,24.6,8.6,30.17,East,95,4.0,4.0,50,0.00,,---,0.01,VWS V14.01,2013-01-31 02:31:00,
2013-01-30 19:36:00,24.4,8.0,30.17,East,96,0.0,1.0,49,0.00,,---,0.01,VWS V14.01,2013-01-31 02:36:00,
2013-01-30 19:41:00,24.3,7.9,30.18,East,96,1.0,1.0,49,0.00,,---,0.01,VWS V14.01,2013-01-31 02:41:00,
2013-01-30 19:46:00,24.0,8.5,30.18,East,95,0.0,0.0,51,0.00,,---,0.01,VWS V14.01,2013-01-31 02:46:00,
2013-01-30 19:51:00,24.1,8.6,30.18,East,95,0.0,0.0,51,0.00,,---,0.01,VWS V14.01,2013-01-31 02:51:00,
2013-01-30 19:56:00,23.6,8.1,30.19,ESE,107,1.0,4.0,51,0.00,,---,0.01,VWS V14.01,2013-01-31 02:56:00,
2013-01-30 20:01:00,23.5,8.1,30.18,ESE,107,0.0,0.0,51,0.00,,---,0.01,VWS V14.01,2013-01-31 03:01:00,
2013-01-30 20:06:00,23.6,8.1,30.19,ESE,107,0.0,2.0,51,0.00,,---,0.01,VWS V14.01,2013-01-31 03:06:00,
2013-01-30 20:11:00,23.5,8.1,30.15,ESE,107,0.0,0.0,51,0.00,,---,0.01,VWS V14.01,2013-01-31 03:11:00,
2013-01-30 20:16:00,23.3,8.3,30.15,ESE,107,0.0,2.0,52,0.00,,---,0.01,VWS V14.01,2013-01-31 03:16:00,
2013-01-30 20:25:00,22.6,8.1,30.15,ESE,107,1.0,1.0,53,0.00,,---,0.01,VWS V14.01,2013-01-31 03:25:00,
2013-01-30 20:30:00,22.1,8.0,30.17,ESE,107,0.0,1.0,54,0.00,,---,0.01,VWS V14.01,2013-01-31 03:30:00,
2013-01-30 20:35:00,22.0,7.9,30.17,ESE,107,0.0,0.0,54,0.00,,---,0.01,VWS V14.01,2013-01-31 03:35:00,
2013-01-30 20:40:00,22.0,8.3,30.18,ESE,107,0.0,0.0,55,0.00,,---,0.01,VWS V14.01,2013-01-31 03:40:00,
2013-01-30 20:45:00,22.1,8.0,30.18,ESE,107,0.0,0.0,54,0.00,,---,0.01,VWS V14.01,2013-01-31 03:45:00,
2013-01-30 20:50:00,22.3,8.2,30.17,ESE,107,0.0,0.0,54,0.00,,---,0.01,VWS V14.01,2013-01-31 03:50:00,
2013-01-30 20:55:00,22.2,8.1,30.17,ESE,107,0.0,1.0,54,0.00,,---,0.01,VWS V14.01,2013-01-31 03:55:00,
2013-01-30 21:00:00,22.0,8.3,30.17,ESE,107,0.0,0.0,55,0.00,,---,0.01,VWS V14.01,2013-01-31 04:00:00,
2013-01-30 21:05:00,21.7,8.4,30.17,ESE,107,0.0,0.0,56,0.00,,---,0.01,VWS V14.01,2013-01-31 04:05:00,
2013-01-30 21:10:00,21.6,8.3,30.12,ESE,107,0.0,0.0,56,0.00,,---,0.01,VWS V14.01,2013-01-31 04:10:00,
2013-01-30 21:15:00,21.7,8.4,30.12,ESE,107,0.0,1.0,56,0.00,,---,0.01,VWS V14.01,2013-01-31 04:15:00,
2013-01-30 21:20:00,21.3,8.4,30.13,ESE,107,0.0,1.0,57,0.00,,---,0.01,VWS V14.01,2013-01-31 04:20:00,
2013-01-30 21:25:00,21.3,8.1,30.13,ESE,107,0.0,0.0,56,0.00,,---,0.01,VWS V14.01,2013-01-31 04:25:00,
2013-01-30 21:30:00,21.7,8.0,30.12,ESE,107,0.0,2.0,55,0.00,,---,0.01,VWS V14.01,2013-01-31 04:30:00,
2013-01-30 21:35:00,21.1,7.9,30.14,ESE,107,0.0,4.0,56,0.00,,---,0.01,VWS V14.01,2013-01-31 04:35:00,
2013-01-30 21:40:00,21.1,7.9,30.14,ESE,107,1.0,4.0,56,0.00,,---,0.01,VWS V14.01,2013-01-31 04:40:00,
2013-01-30 21:45:00,21.7,8.0,30.12,ESE,107,0.0,3.0,55,0.00,,---,0.01,VWS V14.01,2013-01-31 04:45:00,
2013-01-30 21:50:00,22.3,8.2,30.12,ESE,107,2.0,2.0,54,0.00,,---,0.01,VWS V14.01,2013-01-31 04:50:00,
2013-01-30 21:55:00,22.5,8.0,30.12,ESE,107,0.0,1.0,53,0.00,,---,0.01,VWS V14.01,2013-01-31 04:55:00,
2013-01-30 22:00:00,22.5,8.0,30.12,ESE,107,0.0,2.0,53,0.00,,---,0.01,VWS V14.01,2013-01-31 05:00:00,
2013-01-30 22:01:00,22.5,8.0,30.12,ESE,107,0.0,2.0,53,0.00,,---,0.01,VWS V14.01,2013-01-31 05:01:00,
2013-01-30 22:06:00,22.2,7.7,30.11,ESE,107,0.0,1.0,53,0.00,,---,0.01,VWS V14.01,2013-01-31 05:06:00,
2013-01-30 22:11:00,21.8,7.7,30.07,ESE,107,0.0,1.0,54,0.00,,---,0.01,VWS V14.01,2013-01-31 05:11:00,
2013-01-30 22:16:00,21.7,8.0,30.07,ESE,107,0.0,0.0,55,0.00,,---,0.01,VWS V14.01,2013-01-31 05:16:00,
2013-01-30 22:21:00,21.3,7.7,30.09,ESE,107,0.0,0.0,55,0.00,,---,0.01,VWS V14.01,2013-01-31 05:21:00,
2013-01-30 22:26:00,21.0,7.4,30.09,ESE,107,0.0,0.0,55,0.00,,---,0.01,VWS V14.01,2013-01-31 05:26:00,
2013-01-30 22:31:00,20.9,7.3,30.09,ESE,107,0.0,0.0,55,0.00,,---,0.01,VWS V14.01,2013-01-31 05:31:00,
2013-01-30 22:36:00,20.8,7.2,30.09,ESE,107,0.0,1.0,55,0.00,,---,0.01,VWS V14.01,2013-01-31 05:36:00,
2013-01-30 22:41:00,21.0,7.4,30.09,ESE,107,0.0,1.0,55,0.00,,---,0.01,VWS V14.01,2013-01-31 05:41:00,
2013-01-30 22:46:00,21.0,7.4,30.10,ESE,107,5.0,5.0,55,0.00,,---,0.01,VWS V14.01,2013-01-31 05:46:00,
2013-01-30 22:51:00,21.8,7.3,30.08,SE,145,0.0,0.0,53,0.00,,---,0.01,VWS V14.01,2013-01-31 05:51:00,
2013-01-30 22:56:00,22.7,7.7,30.07,SE,145,0.0,0.0,52,0.00,,---,0.01,VWS V14.01,2013-01-31 05:56:00,
2013-01-30 23:01:00,23.9,8.0,30.07,SE,146,0.0,0.0,50,0.00,,---,0.01,VWS V14.01,2013-01-31 06:01:00,
2013-01-30 23:06:00,24.8,7.9,30.05,SE,145,0.0,0.0,48,0.00,,---,0.01,VWS V14.01,2013-01-31 06:06:00,
2013-01-30 23:11:00,24.9,8.0,30.02,SE,146,0.0,2.0,48,0.00,,---,0.01,VWS V14.01,2013-01-31 06:11:00,
2013-01-30 23:16:00,25.8,8.8,30.02,SSE,147,0.0,0.0,48,0.00,,---,0.01,VWS V14.01,2013-01-31 06:16:00,
2013-01-30 23:21:00,26.5,8.5,30.02,West,266,4.0,6.0,46,0.00,,---,0.01,VWS V14.01,2013-01-31 06:21:00,
2013-01-30 23:26:00,27.1,8.6,30.00,West,275,0.0,0.0,45,0.00,,---,0.01,VWS V14.01,2013-01-31 06:26:00,
2013-01-30 23:31:00,27.0,8.5,30.01,West,275,0.0,1.0,45,0.00,,---,0.01,VWS V14.01,2013-01-31 06:31:00,
2013-01-30 23:36:00,27.0,8.5,30.01,West,275,1.0,1.0,45,0.00,,---,0.01,VWS V14.01,2013-01-31 06:36:00,
2013-01-30 23:41:00,26.6,8.6,30.01,West,280,4.0,4.0,46,0.00,,---,0.01,VWS V14.01,2013-01-31 06:41:00,
2013-01-30 23:46:00,25.6,8.6,30.03,West,280,0.0,0.0,48,0.00,,---,0.01,VWS V14.01,2013-01-31 06:46:00,
2013-01-30 23:51:00,23.3,7.4,30.05,WSW,237,0.0,2.0,50,0.00,,---,0.01,VWS V14.01,2013-01-31 06:51:00,
2013-01-30 23:56:00,21.7,7.2,30.07,WSW,238,0.0,0.0,53,0.00,,---,0.01,VWS V14.01,2013-01-31 06:56:00,